Wallingford, Connecticut
Current Conditions -  °F | °C
As of 1:53 AM on Thursday 27 Nov 2014 (Local Time) from KMMK Reporting Station
Overcast Overcast  
Wind Chill: 29°   Ceiling: 7500
Heat Index: 35°   Visibility: 10mi
Dew Point: 31°   Wind: 7mph
Humidity: 85%   Direction: 330°NNW
Pressure: 29.82"   Gusts: NA
Location:  41.46°N, 72.82°W
Report Text: KMMK 270653Z AUTO 33006KT 10SM SCT060 OVC075 02/M01 A2982 RMK AO2 UPE0554SNB0554E06 SLP099 P0000 T00171006 TSNO
Loading
Personal Weather Stations






























Interactive Weather Map New forecast layout! Learn more

10-Day Weather Forecast

Advertisements
Track Severe Weather on mobile